createdAt,value
2022-12-23T00:26:47.305Z,100254.13
2022-12-23T01:01:01.218Z,100243.06
2022-12-23T01:30:24.601Z,100216.09
2022-12-23T01:46:13.597Z,100202.75
2022-12-23T01:54:09.138Z,100198.00
2022-12-23T02:09:54.768Z,100182.84
2022-12-23T02:22:43.264Z,100179.28
2022-12-23T02:26:54.624Z,100167.56
2022-12-23T02:34:41.966Z,100169.19
2022-12-23T02:38:42.101Z,100161.16
2022-12-23T02:42:33.725Z,100161.16
2022-12-23T02:50:11.213Z,100161.97
2022-12-23T03:01:09.911Z,100175.72
2022-12-23T03:04:55.509Z,100175.72
2022-12-23T03:16:34.431Z,100166.84
2022-12-23T03:31:35.675Z,100163.59
2022-12-23T03:35:42.659Z,100164.44
2022-12-23T03:39:50.483Z,100163.66
2022-12-23T03:43:51.093Z,100157.16
2022-12-23T03:51:15.700Z,100156.03
2022-12-23T03:58:50.829Z,100152.00
2022-12-23T04:10:22.666Z,100160.47
2022-12-23T04:18:16.979Z,100149.16
2022-12-23T04:25:34.697Z,100135.50
2022-12-23T04:48:03.943Z,100155.25
2022-12-23T04:55:22.813Z,100152.84
2022-12-23T05:03:04.751Z,100139.63
2022-12-23T05:06:41.389Z,100153.28
2022-12-23T05:10:48.320Z,100154.09
2022-12-23T05:14:35.011Z,100153.06
2022-12-23T05:18:17.922Z,100140.44
2022-12-23T05:22:06.317Z,100134.41
2022-12-23T05:29:24.496Z,100148.87
2022-12-23T05:33:00.813Z,100148.06
2022-12-23T05:36:41.465Z,100142.84
2022-12-23T05:40:39.956Z,100148.47
2022-12-23T05:51:45.422Z,100150.44
2022-12-23T05:55:33.043Z,100165.16
2022-12-23T06:07:06.924Z,100182.72
2022-12-23T06:14:53.048Z,100161.50
2022-12-23T06:22:33.368Z,100160.91
2022-12-23T06:26:17.281Z,100174.97
2022-12-23T06:33:39.142Z,100169.69
2022-12-23T06:41:12.065Z,100146.47
2022-12-23T06:49:17.938Z,100134.03
2022-12-23T06:53:06.930Z,100160.94
2022-12-23T07:00:15.947Z,100191.34
2022-12-23T07:03:33.038Z,100189.00
2022-12-23T07:07:14.627Z,100199.00
2022-12-23T07:10:35.768Z,100208.59
2022-12-23T07:14:18.513Z,100213.37
2022-12-23T07:17:51.354Z,100232.84
2022-12-23T07:21:29.774Z,100235.91
2022-12-23T07:25:01.129Z,100226.50
2022-12-23T07:28:49.864Z,100220.69
2022-12-23T07:32:18.829Z,100195.84
2022-12-23T07:35:58.855Z,100207.13
2022-12-23T07:39:35.038Z,100196.06
2022-12-23T07:42:57.724Z,100200.28
2022-12-23T07:46:37.153Z,100194.66
2022-12-23T07:50:17.649Z,100189.44
2022-12-23T07:54:12.276Z,100185.84
2022-12-23T07:57:30.042Z,100179.00
2022-12-23T08:01:04.941Z,100177.78
2022-12-23T08:04:33.634Z,100179.81
2022-12-23T08:08:05.266Z,100181.03
2022-12-23T08:11:34.184Z,100176.00
2022-12-23T08:15:05.905Z,100175.22
2022-12-23T08:22:55.764Z,100172.75
2022-12-23T08:26:21.089Z,100184.03
2022-12-23T08:33:38.372Z,100166.31
2022-12-23T08:37:12.903Z,100165.13
2022-12-23T08:40:55.070Z,100158.69
2022-12-23T08:44:35.421Z,100166.56
2022-12-23T08:48:13.592Z,100189.66
2022-12-23T08:51:55.124Z,100173.75
2022-12-23T08:55:45.706Z,100164.53
2022-12-23T08:59:20.301Z,100158.09
2022-12-23T09:03:16.693Z,100138.38
2022-12-23T09:06:51.843Z,100128.34
2022-12-23T09:10:46.243Z,100129.97
2022-12-23T09:14:27.639Z,100134.59
2022-12-23T09:17:32.664Z,100135.19
2022-12-23T09:21:18.814Z,100135.16
2022-12-23T09:24:46.310Z,100134.69
2022-12-23T09:28:33.742Z,100146.00
2022-12-23T09:32:15.521Z,100154.50
2022-12-23T09:35:45.112Z,100153.47
2022-12-23T09:39:50.878Z,100160.50
2022-12-23T09:43:50.017Z,100157.88
2022-12-23T09:47:34.252Z,100147.44
2022-12-23T09:51:13.112Z,100131.31
2022-12-23T09:54:53.226Z,100125.41
2022-12-23T09:59:22.371Z,100117.81
2022-12-23T10:03:26.398Z,100135.50
2022-12-23T10:07:18.253Z,100139.63
2022-12-23T10:11:12.632Z,100119.06
2022-12-23T10:15:00.330Z,100108.41
2022-12-23T10:19:08.167Z,100092.41
2022-12-23T10:23:29.294Z,100090.38
2022-12-23T10:27:12.961Z,100097.09
2022-12-23T10:31:41.399Z,100098.28
2022-12-23T10:35:22.375Z,100087.50
2022-12-23T10:38:33.215Z,100074.72
2022-12-23T10:42:34.116Z,100066.16
2022-12-23T10:46:12.314Z,100065.28
2022-12-23T10:49:34.355Z,100064.19
2022-12-23T10:52:46.549Z,100058.66
2022-12-23T10:55:50.502Z,100053.87
2022-12-23T10:59:01.045Z,100044.13
2022-12-23T11:02:56.790Z,100044.47
2022-12-23T11:06:19.715Z,100048.06
2022-12-23T11:09:33.551Z,100055.62
2022-12-23T11:13:01.985Z,100057.87
2022-12-23T11:16:47.624Z,100046.78
2022-12-23T11:20:33.833Z,100055.59
2022-12-23T11:24:20.255Z,100053.75
2022-12-23T11:28:31.191Z,100049.94
2022-12-23T11:31:55.438Z,100041.75
2022-12-23T11:35:37.452Z,100030.97
2022-12-23T11:39:05.034Z,100028.16
2022-12-23T11:42:53.324Z,100026.47
2022-12-23T11:46:52.462Z,100044.28
2022-12-23T11:51:03.893Z,100040.41
2022-12-23T11:55:13.140Z,100046.81
2022-12-23T11:59:21.188Z,100050.63
2022-12-23T12:03:13.096Z,100048.56
2022-12-23T12:07:19.635Z,100053.91
2022-12-23T12:11:08.900Z,100061.13
2022-12-23T12:15:48.292Z,100057.81
2022-12-23T12:19:40.969Z,100063.97
2022-12-23T12:24:08.309Z,100057.19
2022-12-23T12:27:39.459Z,100065.72
2022-12-23T12:31:18.023Z,100060.53
2022-12-23T12:34:55.749Z,100059.09
2022-12-23T12:38:11.968Z,100063.53
2022-12-23T12:41:20.064Z,100058.66
2022-12-23T12:44:50.155Z,100053.06
2022-12-23T12:48:54.256Z,100043.69
2022-12-23T12:52:40.974Z,100043.25
2022-12-23T12:56:30.849Z,100043.56
2022-12-23T13:00:15.276Z,100044.19
2022-12-23T13:03:44.041Z,100049.44
2022-12-23T13:07:18.587Z,100065.56
2022-12-23T13:10:32.842Z,100061.06
2022-12-23T13:13:39.187Z,100064.47
2022-12-23T13:17:22.516Z,100053.22
2022-12-23T13:20:55.445Z,100047.69
2022-12-23T13:24:17.534Z,100054.37
2022-12-23T13:27:58.576Z,100052.53
2022-12-23T13:31:25.783Z,100057.31
2022-12-23T13:35:12.473Z,100055.28
2022-12-23T13:39:00.484Z,100052.06
2022-12-23T13:42:08.372Z,100054.94
2022-12-23T13:45:17.762Z,100059.81
2022-12-23T13:48:57.236Z,100057.78
2022-12-23T13:52:25.156Z,100063.69
2022-12-23T13:55:37.069Z,100070.09
2022-12-23T13:59:01.850Z,100064.59
2022-12-23T14:02:37.539Z,100060.59
2022-12-23T14:05:52.762Z,100055.84
2022-12-23T14:09:31.692Z,100053.75
2022-12-23T14:12:42.966Z,100069.09
2022-12-23T14:16:38.237Z,100063.22
2022-12-23T14:20:10.886Z,100062.78
2022-12-23T14:24:03.825Z,100062.53
2022-12-23T14:27:32.432Z,100062.69
2022-12-23T14:30:46.940Z,100071.56
2022-12-23T14:33:53.836Z,100069.09
2022-12-23T14:37:43.164Z,100072.72
2022-12-23T14:41:30.900Z,100073.97
2022-12-23T14:44:37.241Z,100073.03
2022-12-23T14:47:45.924Z,100073.16
2022-12-23T14:50:58.419Z,100090.91
2022-12-23T14:54:01.706Z,100075.19
2022-12-23T14:57:44.723Z,100071.56
2022-12-23T15:00:55.546Z,100069.75
2022-12-23T15:04:02.348Z,100072.72
2022-12-23T15:07:18.482Z,100076.91
2022-12-23T15:10:45.904Z,100082.47
2022-12-23T15:14:19.012Z,100097.81
2022-12-23T15:17:43.094Z,100104.28
2022-12-23T15:21:12.825Z,100105.28
2022-12-23T15:24:21.042Z,100107.91
2022-12-23T15:27:28.889Z,100115.16
2022-12-23T15:30:48.019Z,100122.41
2022-12-23T15:34:03.700Z,100112.78
2022-12-23T15:37:13.399Z,100105.97
2022-12-23T15:40:39.204Z,100108.75
2022-12-23T15:43:45.729Z,100095.50
2022-12-23T15:46:54.659Z,100090.22
2022-12-23T15:50:21.596Z,100096.75
2022-12-23T15:53:34.106Z,100086.53
2022-12-23T15:57:19.923Z,100079.25
2022-12-23T16:00:58.327Z,100073.50
2022-12-23T16:04:28.630Z,100097.78
2022-12-23T16:08:08.116Z,100094.63
2022-12-23T16:11:19.220Z,100094.63
2022-12-23T16:14:45.274Z,100094.44
2022-12-23T16:17:51.058Z,100095.56
2022-12-23T16:21:15.357Z,100106.69
2022-12-23T16:24:21.129Z,100103.62
2022-12-23T16:27:55.698Z,100097.56
2022-12-23T16:31:21.587Z,100097.38
2022-12-23T16:35:30.631Z,100087.87
2022-12-23T16:39:32.200Z,100080.97
2022-12-23T16:42:48.122Z,100098.34
2022-12-23T16:46:01.017Z,100101.22
2022-12-23T16:49:29.556Z,100094.00
2022-12-23T16:52:36.835Z,100083.69
2022-12-23T16:55:51.174Z,100085.47
2022-12-23T16:59:02.392Z,100081.84
2022-12-23T17:02:19.822Z,100075.31
2022-12-23T17:05:26.727Z,100072.56
2022-12-23T17:08:33.715Z,100075.44
2022-12-23T17:12:01.967Z,100067.50
2022-12-23T17:15:25.869Z,100062.84
2022-12-23T17:18:56.253Z,100069.75
2022-12-23T17:22:42.823Z,100067.78
2022-12-23T17:26:18.225Z,100063.91
2022-12-23T17:29:54.569Z,100069.78
2022-12-23T17:33:20.476Z,100071.94
2022-12-23T17:36:28.105Z,100079.22
2022-12-23T17:39:35.947Z,100084.19
2022-12-23T17:43:00.096Z,100084.69
2022-12-23T17:46:06.848Z,100070.38
2022-12-23T17:49:12.858Z,100066.16
2022-12-23T17:52:20.729Z,100072.66
2022-12-23T17:55:25.932Z,100084.41
2022-12-23T17:58:33.101Z,100071.50
2022-12-23T18:01:37.112Z,100075.50
2022-12-23T18:05:03.398Z,100070.22
2022-12-23T18:08:41.966Z,100067.66
2022-12-23T18:12:34.418Z,100069.06
2022-12-23T18:15:42.155Z,100054.03
2022-12-23T18:18:47.237Z,100061.88
2022-12-23T18:21:52.317Z,100053.06
2022-12-23T18:24:59.579Z,100053.56
2022-12-23T18:28:04.044Z,100056.97
2022-12-23T18:31:18.795Z,100061.72
2022-12-23T18:34:22.363Z,100070.19
2022-12-23T18:37:25.874Z,100065.78
2022-12-23T18:40:35.130Z,100055.31
2022-12-23T18:43:40.750Z,100049.47
2022-12-23T18:47:03.339Z,100059.28
2022-12-23T18:50:10.768Z,100068.69
2022-12-23T18:53:42.190Z,100067.41
2022-12-23T18:57:12.813Z,100072.03
2022-12-23T19:00:18.849Z,100072.31
2022-12-23T19:03:25.099Z,100079.75
2022-12-23T19:06:29.089Z,100075.59
2022-12-23T19:09:32.099Z,100085.63
2022-12-23T19:12:35.437Z,100090.72
2022-12-23T19:15:41.781Z,100094.34
2022-12-23T19:18:50.550Z,100092.81
2022-12-23T19:21:54.234Z,100097.50
2022-12-23T19:25:05.833Z,100097.16
2022-12-23T19:28:14.211Z,100094.75
2022-12-23T19:31:17.989Z,100109.38
2022-12-23T19:34:22.020Z,100111.69
2022-12-23T19:37:25.984Z,100108.63
2022-12-23T19:40:32.477Z,100112.09
2022-12-23T19:43:39.386Z,100101.69
2022-12-23T19:46:43.378Z,100111.81
2022-12-23T19:49:46.944Z,100121.09
2022-12-23T19:52:51.822Z,100111.59
2022-12-23T19:56:00.647Z,100110.97
2022-12-23T19:59:06.173Z,100111.06
2022-12-23T20:02:32.419Z,100115.47
2022-12-23T20:05:36.431Z,100119.94
2022-12-23T20:08:43.724Z,100123.78
2022-12-23T20:11:51.923Z,100133.66
2022-12-23T20:14:54.907Z,100136.91
2022-12-23T20:18:00.134Z,100133.28
2022-12-23T20:21:07.133Z,100123.28
2022-12-23T20:24:11.832Z,100121.66
2022-12-23T20:27:16.077Z,100116.78
2022-12-23T20:30:19.753Z,100107.94
2022-12-23T20:33:23.134Z,100105.91
2022-12-23T20:36:30.928Z,100092.56
2022-12-23T20:39:38.283Z,100082.84
2022-12-23T20:42:42.246Z,100082.22
2022-12-23T20:45:46.560Z,100079.66
2022-12-23T20:49:09.576Z,100076.44
2022-12-23T20:52:12.807Z,100075.41
2022-12-23T20:55:16.529Z,100068.41
2022-12-23T20:58:38.434Z,100068.41
2022-12-23T21:01:44.926Z,100061.84
2022-12-23T21:04:47.715Z,100059.56
2022-12-23T21:07:51.113Z,100062.06
2022-12-23T21:10:58.996Z,100068.84
2022-12-23T21:14:06.753Z,100081.75
2022-12-23T21:17:10.555Z,100072.56
2022-12-23T21:20:14.229Z,100066.50
2022-12-23T21:23:22.677Z,100057.59
2022-12-23T21:26:30.309Z,100055.00
2022-12-23T21:29:33.358Z,100063.28
2022-12-23T21:32:38.427Z,100061.09
2022-12-23T21:35:42.021Z,100043.16
2022-12-23T21:38:47.469Z,100037.13
2022-12-23T21:41:53.091Z,100037.13
2022-12-23T21:44:56.284Z,100037.94
2022-12-23T21:48:19.301Z,100027.06
2022-12-23T21:51:25.974Z,100031.69
2022-12-23T21:54:29.060Z,100035.94
2022-12-23T21:57:32.660Z,100033.87
2022-12-23T22:00:36.262Z,100041.97
2022-12-23T22:03:43.496Z,100044.97
2022-12-23T22:06:49.103Z,100041.34
2022-12-23T22:09:52.569Z,100018.59
2022-12-23T22:12:57.295Z,100016.94
2022-12-23T22:16:05.632Z,100000.37
2022-12-23T22:19:09.346Z,99994.25
2022-12-23T22:22:13.473Z,99978.63
2022-12-23T22:25:17.009Z,99974.53
2022-12-23T22:28:22.505Z,99955.63
2022-12-23T22:31:32.310Z,99949.97
2022-12-23T22:34:35.851Z,99943.72
2022-12-23T22:37:39.121Z,99947.19
2022-12-23T22:41:06.626Z,99948.19
2022-12-23T22:44:12.094Z,99940.41
2022-12-23T22:47:17.726Z,99947.81
2022-12-23T22:50:21.447Z,99949.63
2022-12-23T22:53:37.395Z,99943.22
2022-12-23T22:56:40.940Z,99939.59
2022-12-23T22:59:45.488Z,99940.63
2022-12-23T23:03:08.746Z,99926.69
2022-12-23T23:06:12.551Z,99929.38
2022-12-23T23:09:18.925Z,99938.84
2022-12-23T23:12:22.368Z,99922.75
2022-12-23T23:15:25.809Z,99921.81
2022-12-23T23:18:48.942Z,99937.97
2022-12-23T23:21:53.806Z,99943.69
2022-12-23T23:25:01.480Z,99944.41
2022-12-23T23:28:04.728Z,99945.22
2022-12-23T23:31:40.454Z,99931.69
2022-12-23T23:34:35.740Z,99919.19
2022-12-23T23:37:42.178Z,99949.34
2022-12-23T23:40:49.758Z,99946.75
2022-12-23T23:44:45.213Z,99944.28
2022-12-23T23:48:02.370Z,99934.41
2022-12-23T23:51:34.232Z,99937.28
2022-12-23T23:55:02.234Z,99910.94
2022-12-23T23:58:29.234Z,99894.28
